Time;durP1;ratioP1;P1;durP2;ratioP2;P2;SDS_P1;SDS_P2;PMS_P1;PMS_P2;Temp;Humidity;BMP_temperature;BMP_pressure;BME280_temperature;BME280_humidity;BME280_pressure;Samples;Min_cycle;Max_cycle;Signal;HPM_P1;HPM_P2
2021/11/05 00:02:23;;;;;;;0.80;0.50;;;;;;;;;;5112075;28;20072;-63
2021/11/05 00:04:49;;;;;;;1.27;0.65;;;;;;;;;;5112329;28;20110;-63
2021/11/05 00:07:15;;;;;;;1.50;0.90;;;;;;;;;;5111014;28;20181;-63
2021/11/05 00:09:41;;;;;;;1.30;0.60;;;;;;;;;;5111752;28;20023;-63
2021/11/05 00:12:08;;;;;;;0.80;0.47;;;;;;;;;;5111265;28;20091;-63
2021/11/05 00:14:34;;;;;;;0.93;0.60;;;;;;;;;;5112152;28;20022;-63
2021/11/05 00:17:00;;;;;;;0.55;0.55;;;;;;;;;;5110682;28;20016;-63
2021/11/05 00:19:26;;;;;;;0.85;0.80;;;;;;;;;;5111468;28;20032;-63
2021/11/05 00:21:52;;;;;;;2.60;0.70;;;;;;;;;;5111988;28;20051;-63
2021/11/05 00:24:18;;;;;;;0.80;0.60;;;;;;;;;;5110944;28;20016;-63
2021/11/05 00:26:44;;;;;;;0.70;0.55;;;;;;;;;;5112984;28;20118;-61
2021/11/05 00:29:10;;;;;;;0.93;0.70;;;;;;;;;;5114595;28;20024;-63
2021/11/05 00:31:37;;;;;;;0.60;0.50;;;;;;;;;;5115486;28;20015;-63
2021/11/05 00:34:03;;;;;;;1.08;0.50;;;;;;;;;;5114332;28;20020;-63
2021/11/05 00:36:29;;;;;;;1.02;0.60;;;;;;;;;;5115299;28;20063;-63
2021/11/05 00:38:54;;;;;;;0.73;0.52;;;;;;;;;;5115469;28;20364;-60
2021/11/05 00:41:20;;;;;;;2.80;0.60;;;;;;;;;;5115149;28;20015;-63
2021/11/05 00:43:46;;;;;;;1.73;0.60;;;;;;;;;;5115198;28;20460;-63
2021/11/05 00:46:12;;;;;;;1.05;0.65;;;;;;;;;;5114334;28;20028;-63
2021/11/05 00:48:39;;;;;;;0.50;0.50;;;;;;;;;;5115331;28;20020;-63
2021/11/05 00:51:05;;;;;;;1.35;0.75;;;;;;;;;;5114634;28;20031;-63
2021/11/05 00:53:31;;;;;;;0.85;0.50;;;;;;;;;;5115326;28;20035;-63
2021/11/05 00:55:57;;;;;;;0.98;0.65;;;;;;;;;;5114795;28;20016;-60
2021/11/05 00:58:23;;;;;;;0.82;0.60;;;;;;;;;;5114516;28;20041;-63
2021/11/05 01:00:49;;;;;;;1.10;0.60;;;;;;;;;;5097914;28;20451;-63
2021/11/05 01:03:15;;;;;;;1.30;0.60;;;;;;;;;;5114568;28;20019;-63
2021/11/05 01:05:41;;;;;;;0.77;0.77;;;;;;;;;;5115050;28;20063;-63
2021/11/05 01:08:08;;;;;;;0.88;0.70;;;;;;;;;;5114143;28;20026;-63
2021/11/05 01:10:37;;;;;;;1.08;0.65;;;;;;;;;;5115063;28;20099;-63
2021/11/05 01:13:04;;;;;;;0.65;0.40;;;;;;;;;;5114108;28;20015;-62
2021/11/05 01:15:30;;;;;;;1.17;0.50;;;;;;;;;;5115019;28;20035;-63
2021/11/05 01:17:56;;;;;;;1.15;0.77;;;;;;;;;;5114599;28;20011;-60
2021/11/05 01:20:22;;;;;;;0.70;0.70;;;;;;;;;;5114143;28;20047;-63
2021/11/05 01:22:48;;;;;;;1.23;0.70;;;;;;;;;;5114304;28;20534;-63
2021/11/05 01:25:15;;;;;;;1.45;0.60;;;;;;;;;;5113577;28;20027;-63
2021/11/05 01:27:42;;;;;;;0.60;0.50;;;;;;;;;;5114506;28;20028;-63
2021/11/05 01:30:08;;;;;;;0.95;0.50;;;;;;;;;;5113576;28;20457;-63
2021/11/05 01:32:34;;;;;;;1.23;0.70;;;;;;;;;;5114518;28;20031;-63
2021/11/05 01:35:00;;;;;;;1.25;0.80;;;;;;;;;;5113235;28;20100;-60
2021/11/05 01:37:26;;;;;;;0.50;0.50;;;;;;;;;;5114380;28;20047;-63
2021/11/05 01:39:52;;;;;;;1.83;0.70;;;;;;;;;;5114447;28;20024;-63
2021/11/05 01:42:18;;;;;;;1.10;0.60;;;;;;;;;;5113708;28;20023;-63
2021/11/05 01:44:44;;;;;;;1.17;0.50;;;;;;;;;;5114035;28;20020;-63
2021/11/05 01:47:11;;;;;;;0.57;0.43;;;;;;;;;;5095122;28;20031;-61
2021/11/05 01:49:37;;;;;;;0.70;0.60;;;;;;;;;;5114273;28;20027;-63
2021/11/05 01:52:03;;;;;;;0.85;0.57;;;;;;;;;;5113194;28;20452;-62
2021/11/05 01:54:29;;;;;;;1.33;0.50;;;;;;;;;;5114166;28;20449;-63
2021/11/05 01:56:55;;;;;;;0.77;0.52;;;;;;;;;;5114138;28;20102;-62
2021/11/05 01:59:29;;;;;;;0.80;0.60;;;;;;;;;;5112347;28;20073;-63
2021/11/05 02:01:56;;;;;;;1.20;0.60;;;;;;;;;;5113992;28;20016;-63
2021/11/05 02:04:22;;;;;;;1.83;0.55;;;;;;;;;;5113024;28;20035;-63
2021/11/05 02:06:49;;;;;;;0.95;0.85;;;;;;;;;;5113630;28;20467;-63
2021/11/05 02:09:17;;;;;;;1.67;0.52;;;;;;;;;;5112962;28;20043;-62
2021/11/05 02:11:45;;;;;;;1.65;0.65;;;;;;;;;;5113553;28;20014;-63
2021/11/05 02:14:16;;;;;;;0.40;0.40;;;;;;;;;;5112732;28;20398;-63
2021/11/05 02:16:43;;;;;;;1.05;0.55;;;;;;;;;;5113425;28;20027;-63
2021/11/05 02:19:16;;;;;;;1.40;0.60;;;;;;;;;;5112761;28;20024;-63
2021/11/05 02:21:43;;;;;;;2.22;0.50;;;;;;;;;;5106959;28;20525;-63
2021/11/05 02:24:10;;;;;;;0.85;0.50;;;;;;;;;;5112525;28;20024;-63
2021/11/05 02:26:36;;;;;;;1.33;0.55;;;;;;;;;;5113205;28;20481;-63
2021/11/05 02:29:03;;;;;;;0.57;0.47;;;;;;;;;;5112606;28;20032;-60
2021/11/05 02:31:29;;;;;;;2.13;0.85;;;;;;;;;;5113042;28;20091;-63
2021/11/05 02:33:55;;;;;;;1.23;0.77;;;;;;;;;;5113033;28;20024;-63
2021/11/05 02:36:21;;;;;;;0.55;0.50;;;;;;;;;;5112426;28;20050;-62
2021/11/05 02:38:47;;;;;;;0.90;0.60;;;;;;;;;;5113347;28;20102;-63
2021/11/05 02:41:13;;;;;;;0.65;0.50;;;;;;;;;;5112637;28;20421;-63
2021/11/05 02:43:39;;;;;;;0.57;0.50;;;;;;;;;;5113364;28;20126;-63
2021/11/05 02:46:05;;;;;;;1.85;0.90;;;;;;;;;;5112038;28;20098;-63
2021/11/05 02:48:32;;;;;;;0.55;0.43;;;;;;;;;;5112922;28;20023;-63
2021/11/05 02:50:58;;;;;;;0.95;0.45;;;;;;;;;;5112399;28;20015;-63
2021/11/05 02:53:24;;;;;;;1.05;0.60;;;;;;;;;;5112504;28;20073;-63
2021/11/05 02:55:50;;;;;;;0.95;0.68;;;;;;;;;;5113083;28;20020;-63
2021/11/05 02:58:17;;;;;;;0.93;0.57;;;;;;;;;;5112203;28;20023;-63
2021/11/05 03:00:45;;;;;;;0.50;0.40;;;;;;;;;;5112985;28;20107;-63
2021/11/05 03:03:12;;;;;;;0.32;0.30;;;;;;;;;;5111803;28;20023;-63
2021/11/05 03:05:38;;;;;;;0.50;0.50;;;;;;;;;;5112925;28;20020;-62
2021/11/05 03:08:04;;;;;;;0.80;0.57;;;;;;;;;;5112159;28;20023;-64
2021/11/05 03:10:30;;;;;;;1.10;0.50;;;;;;;;;;5094415;28;20422;-63
2021/11/05 03:12:56;;;;;;;1.10;0.50;;;;;;;;;;5112794;28;20019;-64
2021/11/05 03:15:22;;;;;;;0.52;0.52;;;;;;;;;;5111884;28;20016;-63
2021/11/05 03:17:48;;;;;;;0.63;0.40;;;;;;;;;;5112677;28;20058;-63
2021/11/05 03:20:16;;;;;;;1.60;0.73;;;;;;;;;;5093570;28;20445;-64
2021/11/05 03:22:42;;;;;;;0.65;0.55;;;;;;;;;;5112323;28;20016;-64
2021/11/05 03:25:09;;;;;;;0.40;0.40;;;;;;;;;;5111549;28;20031;-63
2021/11/05 03:27:35;;;;;;;0.40;0.40;;;;;;;;;;5112782;28;20476;-63
2021/11/05 03:30:02;;;;;;;1.10;0.77;;;;;;;;;;5112275;28;20022;-60
2021/11/05 03:32:28;;;;;;;1.30;0.95;;;;;;;;;;5111788;28;20072;-63
2021/11/05 03:34:54;;;;;;;0.55;0.40;;;;;;;;;;5112246;28;20024;-64
2021/11/05 03:37:20;;;;;;;0.60;0.50;;;;;;;;;;5111275;28;20027;-63
2021/11/05 03:39:46;;;;;;;0.47;0.40;;;;;;;;;;5112419;28;20053;-64
2021/11/05 03:42:12;;;;;;;0.40;0.40;;;;;;;;;;5111709;28;20034;-64
2021/11/05 03:44:38;;;;;;;0.70;0.50;;;;;;;;;;5112375;28;20016;-64
2021/11/05 03:47:04;;;;;;;0.40;0.40;;;;;;;;;;5111490;28;20023;-60
2021/11/05 03:49:30;;;;;;;0.70;0.45;;;;;;;;;;5112319;28;20015;-63
2021/11/05 03:51:57;;;;;;;1.75;0.43;;;;;;;;;;5112191;28;20512;-63
2021/11/05 03:54:23;;;;;;;1.67;0.60;;;;;;;;;;5111297;28;20016;-63
2021/11/05 03:56:49;;;;;;;0.98;0.40;;;;;;;;;;5112213;28;20062;-64
2021/11/05 03:59:15;;;;;;;0.60;0.40;;;;;;;;;;5111529;28;20069;-63
2021/11/05 04:01:42;;;;;;;1.05;0.60;;;;;;;;;;5112989;28;20016;-64
2021/11/05 04:04:08;;;;;;;0.32;0.32;;;;;;;;;;5115380;28;20452;-63
2021/11/05 04:06:34;;;;;;;0.93;0.68;;;;;;;;;;5116240;28;20159;-64
2021/11/05 04:09:00;;;;;;;0.50;0.30;;;;;;;;;;5115846;28;20491;-63
2021/11/05 04:11:26;;;;;;;0.75;0.40;;;;;;;;;;5115038;28;20031;-64
2021/11/05 04:13:52;;;;;;;0.90;0.40;;;;;;;;;;5116250;28;20365;-63
2021/11/05 04:16:18;;;;;;;0.75;0.50;;;;;;;;;;5115285;28;20024;-64
2021/11/05 04:18:44;;;;;;;0.82;0.50;;;;;;;;;;5098021;28;20427;-64
2021/11/05 04:21:11;;;;;;;0.57;0.40;;;;;;;;;;5115214;28;20031;-63
2021/11/05 04:23:37;;;;;;;0.63;0.60;;;;;;;;;;5115516;28;20024;-63
2021/11/05 04:26:03;;;;;;;0.30;0.30;;;;;;;;;;5115505;28;20046;-59
2021/11/05 04:28:30;;;;;;;0.68;0.50;;;;;;;;;;5115562;28;20030;-63
2021/11/05 04:30:56;;;;;;;0.65;0.55;;;;;;;;;;5115867;28;20023;-64
2021/11/05 04:33:22;;;;;;;0.43;0.43;;;;;;;;;;5114738;28;20076;-64
2021/11/05 04:35:48;;;;;;;2.28;0.47;;;;;;;;;;5115716;28;20460;-63
2021/11/05 04:38:14;;;;;;;0.60;0.50;;;;;;;;;;5114809;28;20020;-64
2021/11/05 04:40:40;;;;;;;1.60;0.90;;;;;;;;;;5115599;28;20356;-63
2021/11/05 04:43:07;;;;;;;0.77;0.45;;;;;;;;;;5114865;28;20022;-60
2021/11/05 04:45:33;;;;;;;0.52;0.50;;;;;;;;;;5115008;28;20015;-63
2021/11/05 04:47:59;;;;;;;0.50;0.40;;;;;;;;;;5118374;27;20023;-63
2021/11/05 04:50:25;;;;;;;0.50;0.45;;;;;;;;;;5123575;27;20103;-63
2021/11/05 04:52:51;;;;;;;0.38;0.38;;;;;;;;;;5124865;27;20061;-63
2021/11/05 04:55:19;;;;;;;0.30;0.30;;;;;;;;;;5121691;27;20468;-63
2021/11/05 04:57:46;;;;;;;0.55;0.52;;;;;;;;;;5123940;27;20426;-63
2021/11/05 05:00:12;;;;;;;0.65;0.30;;;;;;;;;;5124378;27;20414;-62
2021/11/05 05:02:38;;;;;;;0.40;0.30;;;;;;;;;;5122101;27;20011;-64
2021/11/05 05:05:05;;;;;;;1.05;0.43;;;;;;;;;;5123556;27;20028;-60
2021/11/05 05:07:31;;;;;;;0.40;0.40;;;;;;;;;;5122945;27;20030;-63
2021/11/05 05:09:57;;;;;;;0.75;0.30;;;;;;;;;;5123850;27;20517;-63
2021/11/05 05:12:23;;;;;;;0.47;0.43;;;;;;;;;;5122474;27;20110;-62
2021/11/05 05:14:49;;;;;;;0.85;0.60;;;;;;;;;;5124287;27;20457;-63
2021/11/05 05:17:15;;;;;;;0.65;0.43;;;;;;;;;;5121524;27;20349;-64
2021/11/05 05:19:41;;;;;;;0.60;0.47;;;;;;;;;;5124213;27;20022;-63
2021/11/05 05:22:08;;;;;;;0.38;0.38;;;;;;;;;;5121031;27;20344;-62
2021/11/05 05:24:35;;;;;;;0.30;0.30;;;;;;;;;;5125401;27;20464;-64
2021/11/05 05:27:01;;;;;;;1.17;0.30;;;;;;;;;;5120604;27;20028;-64
2021/11/05 05:29:27;;;;;;;0.43;0.38;;;;;;;;;;5113943;28;20179;-64
2021/11/05 05:31:53;;;;;;;0.63;0.50;;;;;;;;;;5114246;28;20028;-63
2021/11/05 05:34:19;;;;;;;0.30;0.30;;;;;;;;;;5113491;28;20018;-64
2021/11/05 05:36:45;;;;;;;0.47;0.40;;;;;;;;;;5114542;28;20382;-64
2021/11/05 05:39:11;;;;;;;0.43;0.40;;;;;;;;;;5113932;28;20012;-64
2021/11/05 05:41:37;;;;;;;0.88;0.50;;;;;;;;;;5114373;28;20410;-63
2021/11/05 05:44:03;;;;;;;0.73;0.35;;;;;;;;;;5114235;28;20042;-59
2021/11/05 05:46:29;;;;;;;0.65;0.40;;;;;;;;;;5113754;28;20023;-63
2021/11/05 05:48:56;;;;;;;2.30;0.93;;;;;;;;;;5114293;28;20046;-64
2021/11/05 05:51:22;;;;;;;0.40;0.40;;;;;;;;;;5113344;28;20016;-63
2021/11/05 05:53:48;;;;;;;0.30;0.30;;;;;;;;;;5114179;28;20110;-63
2021/11/05 05:56:14;;;;;;;1.10;0.40;;;;;;;;;;5113236;28;20023;-64
2021/11/05 05:58:40;;;;;;;0.30;0.30;;;;;;;;;;5113849;28;20019;-63
2021/11/05 06:01:06;;;;;;;0.50;0.40;;;;;;;;;;5117375;27;20011;-60
2021/11/05 06:03:32;;;;;;;0.50;0.40;;;;;;;;;;5114058;28;20064;-63
2021/11/05 06:05:58;;;;;;;0.50;0.50;;;;;;;;;;5113951;28;20027;-63
2021/11/05 06:08:24;;;;;;;0.47;0.35;;;;;;;;;;5112883;28;20027;-64
2021/11/05 06:10:51;;;;;;;1.00;0.40;;;;;;;;;;5113703;28;20025;-64
2021/11/05 06:13:17;;;;;;;0.30;0.30;;;;;;;;;;5117915;27;20043;-63
2021/11/05 06:15:43;;;;;;;0.60;0.40;;;;;;;;;;5113821;28;20091;-64
2021/11/05 06:18:09;;;;;;;1.00;0.50;;;;;;;;;;5112800;28;20098;-61
2021/11/05 06:20:35;;;;;;;2.17;0.30;;;;;;;;;;5113755;28;20063;-65
2021/11/05 06:23:01;;;;;;;2.80;0.30;;;;;;;;;;5129146;27;20464;-63
2021/11/05 06:25:27;;;;;;;4.05;0.50;;;;;;;;;;5132120;27;20106;-64
2021/11/05 06:27:53;;;;;;;0.55;0.50;;;;;;;;;;5133852;27;20107;-63
2021/11/05 06:30:19;;;;;;;0.77;0.30;;;;;;;;;;5133095;27;20011;-54
2021/11/05 06:32:45;;;;;;;1.35;0.40;;;;;;;;;;5119172;27;20020;-61
2021/11/05 06:35:12;;;;;;;6.22;0.80;;;;;;;;;;5113008;28;20114;-61
2021/11/05 06:37:38;;;;;;;2.65;0.40;;;;;;;;;;5113554;28;20487;-63
2021/11/05 06:40:08;;;;;;;2.83;0.50;;;;;;;;;;5113638;28;20440;-63
2021/11/05 06:42:34;;;;;;;2.67;0.50;;;;;;;;;;5125495;27;20015;-60
2021/11/05 06:45:00;;;;;;;2.72;0.75;;;;;;;;;;5134134;27;20027;-63
2021/11/05 06:47:26;;;;;;;2.90;0.73;;;;;;;;;;5133230;27;20592;-63
2021/11/05 06:49:52;;;;;;;3.35;0.80;;;;;;;;;;5133808;27;20015;-63
2021/11/05 06:52:18;;;;;;;7.78;0.75;;;;;;;;;;5133729;27;20104;-62
2021/11/05 06:54:45;;;;;;;3.47;0.55;;;;;;;;;;5134028;27;20038;-63
2021/11/05 06:57:11;;;;;;;3.60;0.60;;;;;;;;;;5133321;27;20026;-65
2021/11/05 06:59:37;;;;;;;3.08;0.50;;;;;;;;;;5133791;27;20432;-64
2021/11/05 07:02:03;;;;;;;5.22;0.70;;;;;;;;;;5123575;27;20057;-62
2021/11/05 07:04:29;;;;;;;12.15;1.67;;;;;;;;;;5112028;28;20024;-63
2021/11/05 07:06:56;;;;;;;2.33;0.60;;;;;;;;;;5113117;28;20039;-64
2021/11/05 07:09:23;;;;;;;5.15;0.68;;;;;;;;;;5112522;28;20024;-63
2021/11/05 07:11:49;;;;;;;3.05;0.77;;;;;;;;;;5113089;28;20470;-61
2021/11/05 07:14:15;;;;;;;6.90;0.70;;;;;;;;;;5112148;28;20015;-61
2021/11/05 07:16:41;;;;;;;5.03;0.80;;;;;;;;;;5121618;27;20460;-61
2021/11/05 07:19:08;;;;;;;2.33;0.43;;;;;;;;;;5134218;27;20421;-61
2021/11/05 07:21:34;;;;;;;1.33;0.52;;;;;;;;;;5129645;27;20448;-62
2021/11/05 07:24:04;;;;;;;3.67;0.60;;;;;;;;;;5112700;28;20137;-61
2021/11/05 07:26:51;;;;;;;1.98;0.95;;;;;;;;;;5111753;28;20036;-61
2021/11/05 07:29:23;;;;;;;3.25;0.73;;;;;;;;;;5112786;28;20084;-62
2021/11/05 07:31:49;;;;;;;3.38;0.68;;;;;;;;;;5113269;28;20373;-61
2021/11/05 07:34:15;;;;;;;1.38;0.40;;;;;;;;;;5112217;28;20053;-62
2021/11/05 07:36:41;;;;;;;1.42;0.47;;;;;;;;;;5112362;28;20039;-62
2021/11/05 07:39:07;;;;;;;1.27;0.93;;;;;;;;;;5112590;28;20047;-62
2021/11/05 07:41:34;;;;;;;2.72;0.50;;;;;;;;;;5112920;28;20012;-62
2021/11/05 07:44:00;;;;;;;3.80;0.60;;;;;;;;;;5112513;28;20035;-62
2021/11/05 07:46:27;;;;;;;4.45;0.82;;;;;;;;;;5124454;28;20039;-61
2021/11/05 07:48:53;;;;;;;2.15;0.55;;;;;;;;;;5132996;28;20030;-60
2021/11/05 07:51:19;;;;;;;4.05;0.57;;;;;;;;;;5132653;28;20020;-61
2021/11/05 07:53:45;;;;;;;1.50;0.68;;;;;;;;;;5133320;28;20456;-61
2021/11/05 07:56:12;;;;;;;2.30;0.70;;;;;;;;;;5132604;28;20490;-61
2021/11/05 07:58:38;;;;;;;4.05;0.52;;;;;;;;;;5133255;28;20043;-61
2021/11/05 08:01:04;;;;;;;0.52;0.50;;;;;;;;;;5132931;28;20356;-61
2021/11/05 08:03:30;;;;;;;1.33;0.52;;;;;;;;;;5132426;28;20019;-61
2021/11/05 08:05:56;;;;;;;1.02;0.50;;;;;;;;;;5132643;28;20015;-61
2021/11/05 08:08:22;;;;;;;3.00;0.52;;;;;;;;;;5132512;28;20023;-62
2021/11/05 08:10:48;;;;;;;3.28;0.70;;;;;;;;;;5132734;28;20026;-62
2021/11/05 08:13:14;;;;;;;4.13;0.60;;;;;;;;;;5132301;28;20062;-62
2021/11/05 08:15:41;;;;;;;3.92;0.70;;;;;;;;;;5124824;28;20043;-62
2021/11/05 08:18:07;;;;;;;2.22;1.13;;;;;;;;;;5112417;28;20068;-61
2021/11/05 08:20:33;;;;;;;3.50;0.70;;;;;;;;;;5111409;28;20027;-62
2021/11/05 08:22:59;;;;;;;2.88;0.52;;;;;;;;;;5112438;28;20019;-64
2021/11/05 08:25:27;;;;;;;0.90;0.50;;;;;;;;;;5111573;28;20050;-62
2021/11/05 08:27:53;;;;;;;2.15;0.55;;;;;;;;;;5112270;28;20016;-63
2021/11/05 08:30:22;;;;;;;3.40;0.70;;;;;;;;;;5111726;28;20449;-63
2021/11/05 08:32:49;;;;;;;1.38;0.77;;;;;;;;;;5111994;28;20457;-62
2021/11/05 08:35:16;;;;;;;3.58;1.00;;;;;;;;;;5111430;28;20130;-61
2021/11/05 08:37:43;;;;;;;2.38;0.90;;;;;;;;;;5112416;28;20012;-62
2021/11/05 08:40:09;;;;;;;1.70;0.45;;;;;;;;;;5111951;28;20031;-62
2021/11/05 08:42:36;;;;;;;2.13;0.88;;;;;;;;;;5112368;28;20016;-62
2021/11/05 08:45:02;;;;;;;2.78;0.77;;;;;;;;;;5112231;28;20078;-61
2021/11/05 08:47:28;;;;;;;1.10;0.60;;;;;;;;;;5132691;27;20089;-40
2021/11/05 08:49:55;;;;;;;2.78;0.80;;;;;;;;;;5136252;27;20064;-44
2021/11/05 08:52:21;;;;;;;1.83;0.70;;;;;;;;;;5135737;27;20015;-44
2021/11/05 08:54:48;;;;;;;4.15;0.40;;;;;;;;;;5136134;27;20459;-44
2021/11/05 08:57:14;;;;;;;1.00;0.50;;;;;;;;;;5135765;27;20027;-43
2021/11/05 08:59:40;;;;;;;2.53;0.88;;;;;;;;;;5136119;27;20035;-44
2021/11/05 09:02:06;;;;;;;1.60;0.73;;;;;;;;;;5136080;27;20099;-45
2021/11/05 09:04:32;;;;;;;2.45;1.17;;;;;;;;;;5135647;27;20448;-44
2021/11/05 09:06:58;;;;;;;1.73;0.90;;;;;;;;;;5135722;27;20456;-44
2021/11/05 09:09:24;;;;;;;0.77;0.50;;;;;;;;;;5135583;27;20023;-44
2021/11/05 09:11:54;;;;;;;2.28;0.85;;;;;;;;;;5135773;27;20404;-44
2021/11/05 09:14:20;;;;;;;0.93;0.70;;;;;;;;;;5135003;27;20018;-42
2021/11/05 09:16:47;;;;;;;1.30;0.60;;;;;;;;;;5120300;27;20099;-44
2021/11/05 09:19:13;;;;;;;1.63;0.63;;;;;;;;;;5114747;28;20012;-44
2021/11/05 09:21:42;;;;;;;0.88;0.50;;;;;;;;;;5118709;27;20061;-44
2021/11/05 09:24:08;;;;;;;1.85;0.80;;;;;;;;;;5135518;27;20409;-43
2021/11/05 09:26:34;;;;;;;1.80;0.60;;;;;;;;;;5135116;27;20099;-44
2021/11/05 09:29:00;;;;;;;2.45;0.60;;;;;;;;;;5135555;27;20054;-44
2021/11/05 09:31:26;;;;;;;1.65;0.73;;;;;;;;;;5130578;27;20011;-47
2021/11/05 09:33:52;;;;;;;1.17;0.50;;;;;;;;;;5115141;28;20015;-45
2021/11/05 09:36:19;;;;;;;1.13;0.70;;;;;;;;;;5114343;28;20043;-44
2021/11/05 09:38:45;;;;;;;2.00;0.70;;;;;;;;;;5114769;28;20052;-45
2021/11/05 09:41:11;;;;;;;3.00;0.70;;;;;;;;;;5114908;28;20015;-44
2021/11/05 09:43:40;;;;;;;0.80;0.40;;;;;;;;;;5114827;28;20072;-48
2021/11/05 09:46:06;;;;;;;1.55;0.77;;;;;;;;;;5123927;27;20030;-47
2021/11/05 09:48:41;;;;;;;1.00;0.55;;;;;;;;;;5134742;27;20359;-45
2021/11/05 09:51:08;;;;;;;0.90;0.57;;;;;;;;;;5135056;27;20019;-44
2021/11/05 09:53:38;;;;;;;1.48;0.50;;;;;;;;;;5134445;27;20068;-47
2021/11/05 09:56:05;;;;;;;0.98;0.63;;;;;;;;;;5134798;27;20047;-44
2021/11/05 09:58:31;;;;;;;2.33;0.68;;;;;;;;;;5134295;27;20030;-42
2021/11/05 10:00:57;;;;;;;1.73;0.73;;;;;;;;;;5134482;27;20478;-44
2021/11/05 10:03:23;;;;;;;1.15;0.60;;;;;;;;;;5134008;27;20078;-41
2021/11/05 10:05:55;;;;;;;0.47;0.32;;;;;;;;;;5134988;27;20581;-45
2021/11/05 10:08:28;;;;;;;0.70;0.52;;;;;;;;;;5134321;27;20027;-42
2021/11/05 10:10:54;;;;;;;1.48;0.70;;;;;;;;;;5134686;27;20325;-44
2021/11/05 10:13:24;;;;;;;0.63;0.40;;;;;;;;;;5134206;27;20030;-44
2021/11/05 10:15:51;;;;;;;1.00;0.45;;;;;;;;;;5127012;27;20027;-44
2021/11/05 10:18:19;;;;;;;1.85;0.95;;;;;;;;;;5113513;28;20016;-44
2021/11/05 10:20:47;;;;;;;1.38;0.52;;;;;;;;;;5114061;28;20023;-44
2021/11/05 10:23:14;;;;;;;1.73;0.88;;;;;;;;;;5131867;27;20011;-44
2021/11/05 10:25:46;;;;;;;0.98;0.60;;;;;;;;;;5134416;27;20039;-44
2021/11/05 10:28:23;;;;;;;0.82;0.68;;;;;;;;;;5134172;27;20464;-44
2021/11/05 10:30:54;;;;;;;1.27;0.80;;;;;;;;;;5115689;27;20549;-45
2021/11/05 10:33:24;;;;;;;1.65;0.65;;;;;;;;;;5113782;27;20051;-44
2021/11/05 10:35:51;;;;;;;1.15;0.52;;;;;;;;;;5113529;28;20092;-43
2021/11/05 10:38:19;;;;;;;1.02;0.73;;;;;;;;;;5113011;28;20034;-42
2021/11/05 10:40:49;;;;;;;2.22;0.60;;;;;;;;;;5113457;28;20016;-43
2021/11/05 10:43:18;;;;;;;3.28;0.57;;;;;;;;;;5112563;28;20024;-45
2021/11/05 10:45:45;;;;;;;0.95;0.73;;;;;;;;;;5113335;28;20019;-44
2021/11/05 10:48:13;;;;;;;1.08;0.50;;;;;;;;;;5113601;28;20012;-44
2021/11/05 10:50:53;;;;;;;1.55;0.57;;;;;;;;;;5112727;28;20047;-44
2021/11/05 10:53:20;;;;;;;1.00;0.60;;;;;;;;;;5112824;28;20019;-43
2021/11/05 10:55:48;;;;;;;1.73;1.02;;;;;;;;;;5113054;28;20023;-42
2021/11/05 10:58:22;;;;;;;2.28;0.70;;;;;;;;;;5113331;28;20440;-44
2021/11/05 11:00:50;;;;;;;2.33;0.50;;;;;;;;;;5113445;28;20015;-43
2021/11/05 11:03:31;;;;;;;0.68;0.45;;;;;;;;;;5112219;28;20106;-44
2021/11/05 11:05:59;;;;;;;2.13;0.60;;;;;;;;;;5113357;28;20072;-44
2021/11/05 11:08:26;;;;;;;1.30;0.70;;;;;;;;;;5112674;28;20019;-45
2021/11/05 11:10:54;;;;;;;1.42;0.70;;;;;;;;;;5112595;28;20023;-45
2021/11/05 11:13:46;;;;;;;1.33;0.57;;;;;;;;;;5112154;28;20023;-44
2021/11/05 11:16:17;;;;;;;0.77;0.50;;;;;;;;;;5108724;28;20028;-47
2021/11/05 11:18:48;;;;;;;1.70;0.70;;;;;;;;;;5112678;28;20488;-44
2021/11/05 11:21:14;;;;;;;2.20;0.77;;;;;;;;;;5113021;28;20023;-45
2021/11/05 11:23:41;;;;;;;1.90;0.60;;;;;;;;;;5112844;28;20364;-45
2021/11/05 11:26:07;;;;;;;0.80;0.63;;;;;;;;;;5112602;28;20028;-45
2021/11/05 11:28:34;;;;;;;2.15;0.80;;;;;;;;;;5112280;28;20102;-43
2021/11/05 11:31:00;;;;;;;0.73;0.52;;;;;;;;;;5113433;28;20027;-45
2021/11/05 11:33:26;;;;;;;1.15;0.73;;;;;;;;;;5111902;28;20015;-46
2021/11/05 11:35:53;;;;;;;5.20;1.30;;;;;;;;;;5112844;28;20046;-43
2021/11/05 11:38:20;;;;;;;2.25;0.70;;;;;;;;;;5112116;28;20085;-45
2021/11/05 11:40:48;;;;;;;1.15;0.65;;;;;;;;;;5112820;28;20104;-47
2021/11/05 11:43:15;;;;;;;1.63;0.88;;;;;;;;;;5112609;28;20015;-47
2021/11/05 11:45:45;;;;;;;1.42;0.70;;;;;;;;;;5112612;28;20031;-45
2021/11/05 11:48:12;;;;;;;1.08;0.98;;;;;;;;;;5112679;28;20498;-48
2021/11/05 11:50:38;;;;;;;0.95;0.60;;;;;;;;;;5112096;28;20030;-47
2021/11/05 11:53:08;;;;;;;1.67;0.70;;;;;;;;;;5112739;28;20026;-46
2021/11/05 11:55:36;;;;;;;0.98;0.70;;;;;;;;;;5112111;28;20024;-46
2021/11/05 11:58:16;;;;;;;1.42;1.05;;;;;;;;;;5112319;28;20041;-46
2021/11/05 12:00:43;;;;;;;1.25;0.60;;;;;;;;;;5112472;28;20012;-45
2021/11/05 12:03:11;;;;;;;2.35;0.70;;;;;;;;;;5112317;28;20031;-48
2021/11/05 12:05:38;;;;;;;1.02;0.70;;;;;;;;;;5112066;28;20398;-46
2021/11/05 12:08:17;;;;;;;2.10;0.70;;;;;;;;;;5112538;28;20030;-45
2021/11/05 12:11:01;;;;;;;2.20;1.10;;;;;;;;;;5112244;28;20041;-45
2021/11/05 12:13:36;;;;;;;3.35;0.93;;;;;;;;;;5111466;28;20012;-46
2021/11/05 12:16:13;;;;;;;0.80;0.63;;;;;;;;;;5112655;28;20027;-47
2021/11/05 12:18:58;;;;;;;0.70;0.50;;;;;;;;;;5111380;28;20098;-45
2021/11/05 12:21:45;;;;;;;1.20;0.70;;;;;;;;;;5111511;28;20468;-45
2021/11/05 12:24:17;;;;;;;0.93;0.63;;;;;;;;;;5115178;28;20031;-45
2021/11/05 12:26:47;;;;;;;2.53;0.77;;;;;;;;;;5115762;28;20032;-43
2021/11/05 12:29:32;;;;;;;1.75;0.70;;;;;;;;;;5116086;28;20099;-45
2021/11/05 12:32:19;;;;;;;0.77;0.55;;;;;;;;;;5116106;28;20027;-45
2021/11/05 12:34:50;;;;;;;1.75;0.82;;;;;;;;;;5115196;28;20023;-44
2021/11/05 12:37:32;;;;;;;2.35;0.80;;;;;;;;;;5075614;28;20085;-45
2021/11/05 12:40:17;;;;;;;3.15;0.65;;;;;;;;;;5075206;28;20048;-43
2021/11/05 12:42:44;;;;;;;10.65;1.23;;;;;;;;;;5075537;28;20450;-44
2021/11/05 12:45:10;;;;;;;1.92;0.90;;;;;;;;;;5075350;28;20035;-43
2021/11/05 12:47:48;;;;;;;2.10;0.95;;;;;;;;;;5074761;28;20028;-45
2021/11/05 12:50:22;;;;;;;3.67;1.00;;;;;;;;;;5074989;28;20055;-45
2021/11/05 12:52:52;;;;;;;4.25;1.10;;;;;;;;;;5074964;28;20523;-44
2021/11/05 12:55:19;;;;;;;1.60;0.95;;;;;;;;;;5074912;28;20020;-44
2021/11/05 12:57:50;;;;;;;1.42;0.82;;;;;;;;;;5074998;28;20025;-45
2021/11/05 13:00:16;;;;;;;3.72;0.82;;;;;;;;;;5075131;28;20024;-44
2021/11/05 13:02:49;;;;;;;3.63;1.08;;;;;;;;;;5088233;28;20027;-45
2021/11/05 13:05:16;;;;;;;1.83;0.75;;;;;;;;;;5094767;28;20023;-45
2021/11/05 13:07:51;;;;;;;1.60;0.93;;;;;;;;;;5087007;28;21899;-45
2021/11/05 13:10:27;;;;;;;3.03;0.90;;;;;;;;;;5074364;28;20025;-47
2021/11/05 13:12:54;;;;;;;2.65;1.30;;;;;;;;;;5075612;28;20021;-45
2021/11/05 13:15:20;;;;;;;0.80;0.60;;;;;;;;;;5074036;28;20028;-50
2021/11/05 13:17:46;;;;;;;2.13;0.93;;;;;;;;;;5074486;28;20020;-54
2021/11/05 13:20:21;;;;;;;2.33;0.80;;;;;;;;;;5074370;28;20391;-45
2021/11/05 13:22:48;;;;;;;1.50;0.80;;;;;;;;;;5074604;28;20492;-45
2021/11/05 13:25:26;;;;;;;2.25;0.95;;;;;;;;;;5074056;28;20465;-45
2021/11/05 13:28:07;;;;;;;1.85;0.70;;;;;;;;;;5074664;28;20506;-45
2021/11/05 13:30:41;;;;;;;1.35;1.05;;;;;;;;;;5073998;28;20104;-45
2021/11/05 13:33:08;;;;;;;2.28;0.95;;;;;;;;;;5073919;28;20408;-48
2021/11/05 13:35:46;;;;;;;1.30;1.20;;;;;;;;;;5086002;28;20043;-44
2021/11/05 13:38:13;;;;;;;1.77;1.27;;;;;;;;;;5114750;28;20061;-45
2021/11/05 13:40:55;;;;;;;1.92;0.88;;;;;;;;;;5113409;28;20015;-43
2021/11/05 13:43:22;;;;;;;1.55;0.80;;;;;;;;;;5114269;28;20024;-55
2021/11/05 13:45:49;;;;;;;1.17;0.85;;;;;;;;;;5114505;28;20368;-45
2021/11/05 13:48:21;;;;;;;2.15;0.90;;;;;;;;;;5114603;28;20085;-45
2021/11/05 13:50:47;;;;;;;0.90;0.70;;;;;;;;;;5114599;28;20024;-45
2021/11/05 13:53:17;;;;;;;2.03;1.25;;;;;;;;;;5114832;28;20027;-46
2021/11/05 13:55:44;;;;;;;1.67;0.80;;;;;;;;;;5113803;28;20102;-47
2021/11/05 13:58:10;;;;;;;2.72;1.08;;;;;;;;;;5113970;28;20028;-46
2021/11/05 14:00:38;;;;;;;2.00;1.48;;;;;;;;;;5113602;28;20499;-46
2021/11/05 14:03:04;;;;;;;2.38;1.10;;;;;;;;;;5114204;28;20024;-47
2021/11/05 14:05:30;;;;;;;1.30;0.73;;;;;;;;;;5113679;28;20019;-45
2021/11/05 14:08:03;;;;;;;3.05;1.20;;;;;;;;;;5114552;28;20468;-46
2021/11/05 14:10:30;;;;;;;4.65;1.17;;;;;;;;;;5095321;28;20015;-46
2021/11/05 14:12:57;;;;;;;1.80;1.27;;;;;;;;;;5114439;28;20086;-50
2021/11/05 14:15:30;;;;;;;2.75;1.83;;;;;;;;;;5113536;28;20042;-48
2021/11/05 14:17:56;;;;;;;4.50;1.50;;;;;;;;;;5114189;28;20016;-45
2021/11/05 14:20:36;;;;;;;2.45;1.48;;;;;;;;;;5113560;28;20027;-55
2021/11/05 14:23:02;;;;;;;5.20;3.88;;;;;;;;;;5113938;28;20015;-45
2021/11/05 14:25:29;;;;;;;6.32;5.35;;;;;;;;;;5113084;28;20039;-46
2021/11/05 14:27:56;;;;;;;9.35;5.40;;;;;;;;;;5113895;28;20016;-45
2021/11/05 14:30:31;;;;;;;9.02;6.15;;;;;;;;;;5095462;28;20103;-45
2021/11/05 14:32:58;;;;;;;8.90;5.70;;;;;;;;;;5112939;28;20016;-45
2021/11/05 14:35:28;;;;;;;8.52;5.45;;;;;;;;;;5111960;27;20046;-47
2021/11/05 14:38:04;;;;;;;8.05;5.78;;;;;;;;;;5134540;27;20020;-45
2021/11/05 14:40:31;;;;;;;8.57;5.63;;;;;;;;;;5132891;27;20023;-47
2021/11/05 14:43:00;;;;;;;9.85;4.82;;;;;;;;;;5133297;27;20068;-48
2021/11/05 14:45:29;;;;;;;9.02;5.07;;;;;;;;;;5132078;27;20061;-52
2021/11/05 14:47:55;;;;;;;7.88;5.38;;;;;;;;;;5133303;27;20483;-45